KLVS

Details ICAO KLVS (LVS)
Name LAS VEGAS MUNI
Region United States
Timezone America/Denver (UTC-6.0)
Plans Departing 258
Arriving 669
Stats Elevation 6,877 ft / 2,096 m (AMSL)
Location 35.654100° -105.142000°
Runways 2
Magnetic Variation 7.643° E
Sunrise 2020-10-20 13:13:00 UTC / 2020-10-20 07:13:00 Local
Sunset 2020-10-21 00:19:47 UTC / 2020-10-20 18:19:47 Local
Advertisement - Login to hide

Runways

ID Width Length Bearing (true/mag) Surface Threshold Overrun Markings Lighting
02 75 ft / 23 m 5,007 ft / 1,526 m 34.79° / 27.15° ASPHALT 0 ft / 0 m 0 ft / 0 m APP ODALS
14 75 ft / 23 m 8,208 ft / 2,502 m 151.74° / 144.09° ASPHALT 0 ft / 0 m 0 ft / 0 m APP EDGE THRESHOLD
20 75 ft / 23 m 5,007 ft / 1,526 m 214.79° / 207.15° ASPHALT 0 ft / 0 m 0 ft / 0 m APP ODALS
32 75 ft / 23 m 8,208 ft / 2,502 m 331.75° / 324.10° ASPHALT 0 ft / 0 m 0 ft / 0 m APP EDGE THRESHOLD

Map

Weather


0- 5 10 15 20 25 30 35+ Temperature / °C

Clouds and Precipitation
Forecast for 2020-10-20 18:00 UTC. Updated 10 hours ago

Ground ~20,000 ft ~40,000 ft Winds

METAR

KLVS 210053Z AUTO 34009KT 10SM CLR 17/M17 A3004 RMK AO2 SLP087 T01671172

TAF

KLVS 202321Z 2100/2124 VRB06KT P6SM SKC FM211600 20008KT P6SM SKC FM211900 23018G25KT P6SM FEW250

Frequencies

Unicom 122.80 MHz CTAF/UNICOM
Recorded 118.52 MHz ASOS
Warning: Do not use this data for real-world aviation or navigation. No guarantee of current accuracy is given.